createdAt,value
2023-01-26T00:01:39.077Z,113.18
2023-01-26T00:04:13.276Z,122.40
2023-01-26T00:06:46.783Z,122.87
2023-01-26T00:09:22.053Z,118.20
2023-01-26T00:11:55.465Z,110.20
2023-01-26T00:14:49.474Z,120.23
2023-01-26T00:17:31.684Z,118.35
2023-01-26T00:20:06.090Z,111.63
2023-01-26T00:22:39.674Z,107.10
2023-01-26T00:25:14.817Z,104.97
2023-01-26T00:27:48.443Z,103.73
2023-01-26T00:30:22.253Z,99.35
2023-01-26T00:32:57.514Z,103.70
2023-01-26T00:35:31.372Z,100.90
2023-01-26T00:38:05.631Z,95.87
2023-01-26T00:40:40.972Z,105.10
2023-01-26T00:43:14.457Z,93.65
2023-01-26T00:45:48.661Z,91.27
2023-01-26T00:48:24.546Z,96.95
2023-01-26T00:50:58.539Z,91.25
2023-01-26T00:53:32.081Z,96.13
2023-01-26T00:56:08.451Z,89.43
2023-01-26T00:58:42.261Z,79.15
2023-01-26T01:01:16.097Z,85.90
2023-01-26T01:03:50.412Z,83.50
2023-01-26T01:06:24.223Z,77.07
2023-01-26T01:08:57.803Z,81.85
2023-01-26T01:11:32.912Z,76.57
2023-01-26T01:14:06.549Z,81.53
2023-01-26T01:16:40.823Z,80.82
2023-01-26T01:19:15.628Z,78.93
2023-01-26T01:21:49.400Z,79.55
2023-01-26T01:24:23.204Z,84.55
2023-01-26T01:26:58.407Z,89.47
2023-01-26T01:29:32.000Z,86.43
2023-01-26T01:32:06.191Z,81.25
2023-01-26T01:34:39.743Z,81.30
2023-01-26T01:37:13.464Z,93.15
2023-01-26T01:39:47.031Z,84.32
2023-01-26T01:42:22.597Z,92.80
2023-01-26T01:45:38.838Z,93.57
2023-01-26T01:48:20.441Z,87.50
2023-01-26T01:50:58.440Z,90.38
2023-01-26T01:53:36.813Z,96.47
2023-01-26T01:56:18.959Z,89.38
2023-01-26T01:58:56.455Z,90.30
2023-01-26T02:01:30.757Z,86.47
2023-01-26T02:04:07.285Z,89.07
2023-01-26T02:06:48.252Z,93.63
2023-01-26T02:09:45.003Z,91.40
2023-01-26T02:12:21.780Z,89.57
2023-01-26T02:14:58.952Z,92.40
2023-01-26T02:17:32.597Z,89.47
2023-01-26T02:20:14.988Z,91.70
2023-01-26T02:22:56.782Z,86.78
2023-01-26T02:25:38.174Z,96.63
2023-01-26T02:28:13.185Z,84.55
2023-01-26T02:30:47.420Z,89.38
2023-01-26T02:33:22.199Z,89.72
2023-01-26T02:35:56.090Z,84.80
2023-01-26T02:38:39.305Z,87.43
2023-01-26T02:41:37.073Z,90.13
2023-01-26T02:44:13.077Z,83.03
2023-01-26T02:46:46.862Z,87.13
2023-01-26T02:49:38.298Z,79.15
2023-01-26T02:52:12.010Z,75.97
2023-01-26T02:55:03.473Z,79.53
2023-01-26T02:57:37.236Z,88.55
2023-01-26T03:00:15.089Z,80.90
2023-01-26T03:02:50.577Z,75.38
2023-01-26T03:05:24.306Z,75.25
2023-01-26T03:07:58.102Z,78.93
2023-01-26T03:10:31.726Z,81.50
2023-01-26T03:13:05.746Z,80.50
2023-01-26T03:15:43.799Z,77.53
2023-01-26T03:18:36.239Z,77.07
2023-01-26T03:21:31.167Z,76.32
2023-01-26T03:24:22.755Z,80.72
2023-01-26T03:27:13.933Z,76.38
2023-01-26T03:29:47.643Z,70.47
2023-01-26T03:32:22.928Z,64.25
2023-01-26T03:34:56.676Z,72.53
2023-01-26T03:37:34.641Z,60.83
2023-01-26T03:40:27.792Z,69.28
2023-01-26T03:43:26.072Z,64.60
2023-01-26T03:46:17.346Z,69.28
2023-01-26T03:49:09.576Z,65.25
2023-01-26T03:52:00.722Z,67.95
2023-01-26T03:54:51.498Z,66.20
2023-01-26T03:57:25.187Z,65.22
2023-01-26T03:59:58.740Z,66.70
2023-01-26T04:02:49.754Z,62.97
2023-01-26T04:05:41.933Z,67.10
2023-01-26T04:08:24.667Z,67.78
2023-01-26T04:10:58.310Z,71.55
2023-01-26T04:13:49.415Z,73.37
2023-01-26T04:16:40.788Z,70.70
2023-01-26T04:19:32.675Z,74.25
2023-01-26T04:22:07.608Z,77.03
2023-01-26T04:24:41.484Z,76.82
2023-01-26T04:27:15.030Z,69.53
2023-01-26T04:29:48.741Z,74.30
2023-01-26T04:32:22.215Z,74.20
2023-01-26T04:34:56.033Z,74.28
2023-01-26T04:37:31.046Z,67.93
2023-01-26T04:40:05.722Z,69.53
2023-01-26T04:42:39.337Z,69.55
2023-01-26T04:45:13.150Z,74.47
2023-01-26T04:47:46.716Z,72.20
2023-01-26T04:50:20.463Z,73.40
2023-01-26T04:52:55.364Z,63.50
2023-01-26T04:55:29.158Z,68.90
2023-01-26T04:58:03.915Z,63.85
2023-01-26T05:00:37.844Z,57.70
2023-01-26T05:03:11.776Z,60.20
2023-01-26T05:05:46.034Z,59.77
2023-01-26T05:08:22.723Z,62.88
2023-01-26T05:10:56.499Z,60.40
2023-01-26T05:13:30.171Z,56.40
2023-01-26T05:16:04.803Z,58.22
2023-01-26T05:18:38.447Z,58.08
2023-01-26T05:21:12.556Z,58.35
2023-01-26T05:23:47.575Z,57.25
2023-01-26T05:26:21.476Z,60.08
2023-01-26T05:28:54.973Z,52.00
2023-01-26T05:31:28.839Z,53.97
2023-01-26T05:34:02.401Z,52.05
2023-01-26T05:36:36.093Z,51.60
2023-01-26T05:39:11.090Z,48.95
2023-01-26T05:41:44.866Z,51.50
2023-01-26T05:44:18.418Z,46.25
2023-01-26T05:46:53.001Z,44.63
2023-01-26T05:49:26.602Z,41.35
2023-01-26T05:52:00.426Z,42.42
2023-01-26T05:54:35.292Z,44.47
2023-01-26T05:57:09.649Z,45.97
2023-01-26T05:59:43.284Z,45.42
2023-01-26T06:02:17.277Z,43.38
2023-01-26T06:04:50.881Z,43.67
2023-01-26T06:07:26.304Z,49.92
2023-01-26T06:10:01.594Z,42.08
2023-01-26T06:12:38.564Z,45.65
2023-01-26T06:15:13.632Z,47.38
2023-01-26T06:17:47.602Z,44.65
2023-01-26T06:20:21.276Z,45.08
2023-01-26T06:22:55.202Z,44.47
2023-01-26T06:25:30.246Z,46.20
2023-01-26T06:28:04.159Z,44.53
2023-01-26T06:30:38.107Z,48.28
2023-01-26T06:33:11.976Z,42.90
2023-01-26T06:35:45.607Z,44.22
2023-01-26T06:38:19.467Z,45.42
2023-01-26T06:40:54.560Z,40.70
2023-01-26T06:43:28.371Z,45.88
2023-01-26T06:46:02.685Z,44.28
2023-01-26T06:48:37.112Z,36.95
2023-01-26T06:51:42.470Z,37.83
2023-01-26T06:54:16.590Z,42.13
2023-01-26T06:56:51.537Z,41.08
2023-01-26T06:59:25.795Z,38.70
2023-01-26T07:02:00.301Z,45.53
2023-01-26T07:04:35.271Z,37.65
2023-01-26T07:07:09.256Z,50.42
2023-01-26T07:09:43.027Z,41.75
2023-01-26T07:12:18.057Z,35.42
2023-01-26T07:14:52.149Z,37.10
2023-01-26T07:17:26.002Z,42.83
2023-01-26T07:19:59.784Z,42.60
2023-01-26T07:22:33.409Z,42.75
2023-01-26T07:25:08.022Z,40.60
2023-01-26T07:27:43.330Z,41.25
2023-01-26T07:30:19.602Z,39.30
2023-01-26T07:32:55.348Z,39.53
2023-01-26T07:35:29.855Z,36.70
2023-01-26T07:38:05.029Z,38.58
2023-01-26T07:40:38.932Z,44.05
2023-01-26T07:43:15.051Z,45.00
2023-01-26T07:45:51.409Z,46.00
2023-01-26T07:48:25.381Z,42.30
2023-01-26T07:51:01.068Z,39.10
2023-01-26T07:53:39.432Z,44.65
2023-01-26T07:56:16.061Z,42.97
2023-01-26T07:58:55.024Z,44.38
2023-01-26T08:01:28.950Z,47.17
2023-01-26T08:04:02.698Z,51.08
2023-01-26T08:06:36.578Z,41.30
2023-01-26T08:09:10.901Z,43.47
2023-01-26T08:11:44.894Z,43.05
2023-01-26T08:14:20.083Z,39.10
2023-01-26T08:16:54.201Z,34.97
2023-01-26T08:19:27.877Z,37.80
2023-01-26T08:22:01.751Z,39.22
2023-01-26T08:24:35.761Z,34.15
2023-01-26T08:27:09.565Z,38.33
2023-01-26T08:29:44.836Z,35.30
2023-01-26T08:32:18.700Z,36.13
2023-01-26T08:34:52.264Z,35.53
2023-01-26T08:37:26.107Z,34.72
2023-01-26T08:39:59.663Z,38.10
2023-01-26T08:42:33.479Z,33.00
2023-01-26T08:45:09.817Z,34.63
2023-01-26T08:47:43.669Z,36.72
2023-01-26T08:50:17.597Z,37.85
2023-01-26T08:52:52.505Z,38.33
2023-01-26T08:55:28.459Z,35.78
2023-01-26T08:58:02.607Z,31.98
2023-01-26T09:00:40.450Z,29.92
2023-01-26T09:03:14.357Z,41.95
2023-01-26T09:05:47.965Z,31.25
2023-01-26T09:08:21.980Z,42.72
2023-01-26T09:10:55.580Z,31.35
2023-01-26T09:13:29.376Z,27.63
2023-01-26T09:16:06.131Z,24.77
2023-01-26T09:18:39.946Z,25.27
2023-01-26T09:21:13.490Z,25.40
2023-01-26T09:23:47.755Z,25.67
2023-01-26T09:26:21.318Z,20.55
2023-01-26T09:28:55.074Z,23.27
2023-01-26T09:31:30.419Z,22.38
2023-01-26T09:34:04.140Z,25.40
2023-01-26T09:36:39.807Z,27.13
2023-01-26T09:39:15.084Z,23.55
2023-01-26T09:42:03.412Z,21.52
2023-01-26T09:44:44.518Z,21.17
2023-01-26T09:47:30.461Z,21.25
2023-01-26T09:50:12.434Z,19.92
2023-01-26T09:52:53.436Z,19.52
2023-01-26T09:55:28.323Z,22.98
2023-01-26T09:58:05.371Z,18.95
2023-01-26T10:00:45.012Z,22.50
2023-01-26T10:03:27.271Z,21.23
2023-01-26T10:06:13.484Z,22.05
2023-01-26T10:08:47.124Z,25.35
2023-01-26T10:11:28.027Z,20.52
2023-01-26T10:14:07.969Z,27.75
2023-01-26T10:16:44.856Z,20.98
2023-01-26T10:19:32.123Z,26.13
2023-01-26T10:22:09.166Z,24.10
2023-01-26T10:24:43.857Z,32.10
2023-01-26T10:27:18.955Z,23.73
2023-01-26T10:29:52.560Z,26.00
2023-01-26T10:32:26.707Z,25.38
2023-01-26T10:35:01.807Z,33.47
2023-01-26T10:37:36.164Z,31.92
2023-01-26T10:40:11.028Z,27.75
2023-01-26T10:42:56.039Z,25.48
2023-01-26T10:45:32.065Z,29.13
2023-01-26T10:48:17.772Z,28.55
2023-01-26T10:50:52.704Z,29.55
2023-01-26T10:53:29.824Z,28.85
2023-01-26T10:56:07.241Z,30.52
2023-01-26T10:58:48.729Z,34.22
2023-01-26T11:01:27.312Z,33.75
2023-01-26T11:06:38.349Z,36.13
2023-01-26T11:09:18.294Z,29.17
2023-01-26T11:12:03.714Z,32.95
2023-01-26T11:14:37.795Z,38.33
2023-01-26T11:17:20.378Z,36.88
2023-01-26T11:20:17.122Z,33.58
2023-01-26T11:22:58.928Z,42.83
2023-01-26T11:25:43.844Z,35.90
2023-01-26T11:28:36.602Z,42.13
2023-01-26T11:31:20.689Z,37.17
2023-01-26T11:34:07.538Z,39.38
2023-01-26T11:36:49.650Z,52.47
2023-01-26T11:39:32.012Z,32.63
2023-01-26T11:42:20.357Z,42.83
2023-01-26T11:45:12.356Z,38.65
2023-01-26T11:47:59.539Z,37.22
2023-01-26T11:50:40.412Z,60.42
2023-01-26T11:53:41.515Z,41.55
2023-01-26T11:56:30.446Z,38.72
2023-01-26T11:59:10.864Z,35.03
2023-01-26T12:01:49.830Z,39.53
2023-01-26T12:04:24.427Z,39.72
2023-01-26T12:07:04.646Z,38.92
2023-01-26T12:09:43.507Z,37.15
2023-01-26T12:12:27.993Z,39.42
2023-01-26T12:15:06.156Z,40.95
2023-01-26T12:17:49.105Z,42.63
2023-01-26T12:20:30.317Z,31.33
2023-01-26T12:23:07.071Z,37.35
2023-01-26T12:25:42.952Z,43.95
2023-01-26T12:28:23.944Z,52.78
2023-01-26T12:31:05.356Z,68.38
2023-01-26T12:33:39.564Z,34.78
2023-01-26T12:36:27.108Z,33.42
2023-01-26T12:39:08.943Z,37.67
2023-01-26T12:42:10.421Z,45.15
2023-01-26T12:44:48.884Z,36.67
2023-01-26T12:47:30.739Z,33.70
2023-01-26T12:50:12.190Z,34.95
2023-01-26T12:52:52.111Z,35.25
2023-01-26T12:55:30.138Z,29.65
2023-01-26T12:58:11.273Z,54.63
2023-01-26T13:00:57.519Z,34.17
2023-01-26T13:03:34.996Z,30.58
2023-01-26T13:06:23.246Z,30.00
2023-01-26T13:09:18.934Z,29.73
2023-01-26T13:11:54.381Z,30.55
2023-01-26T13:14:35.235Z,28.23
2023-01-26T13:17:48.917Z,28.25
2023-01-26T13:20:44.873Z,26.67
2023-01-26T13:23:52.688Z,20.20
2023-01-26T13:26:45.290Z,19.30
2023-01-26T13:29:32.856Z,23.10
2023-01-26T13:32:55.543Z,20.90
2023-01-26T13:35:31.547Z,21.48
2023-01-26T13:38:15.365Z,21.20
2023-01-26T13:40:50.911Z,23.73
2023-01-26T13:43:31.215Z,25.38
2023-01-26T13:46:16.218Z,21.70
2023-01-26T13:48:51.190Z,23.30
2023-01-26T13:51:28.743Z,19.90
2023-01-26T13:54:06.427Z,18.90
2023-01-26T13:56:41.621Z,20.27
2023-01-26T13:59:17.537Z,15.50
2023-01-26T14:01:53.370Z,19.00
2023-01-26T14:04:29.330Z,18.83
2023-01-26T14:07:08.418Z,18.83
2023-01-26T14:09:46.778Z,16.25
2023-01-26T14:12:25.063Z,20.00
2023-01-26T14:15:03.415Z,17.67
2023-01-26T14:17:56.972Z,17.30
2023-01-26T14:20:33.784Z,19.33
2023-01-26T14:23:16.404Z,17.23
2023-01-26T14:25:59.310Z,21.20
2023-01-26T14:28:36.783Z,17.98
2023-01-26T14:31:19.814Z,18.08
2023-01-26T14:33:58.560Z,18.13
2023-01-26T14:36:37.019Z,19.23
2023-01-26T14:39:18.245Z,17.27
2023-01-26T14:41:52.497Z,21.63
2023-01-26T14:44:26.116Z,18.88
2023-01-26T14:47:04.604Z,18.65
2023-01-26T14:49:46.327Z,21.23
2023-01-26T14:52:25.128Z,16.13
2023-01-26T14:55:07.324Z,22.92
2023-01-26T14:57:41.107Z,17.25
2023-01-26T15:00:24.307Z,21.05
2023-01-26T15:03:01.484Z,17.45
2023-01-26T15:05:37.671Z,15.88
2023-01-26T15:08:21.701Z,23.25
2023-01-26T15:11:18.165Z,18.00
2023-01-26T15:13:55.373Z,16.35
2023-01-26T15:16:29.149Z,18.30
2023-01-26T15:19:06.733Z,14.80
2023-01-26T15:21:43.725Z,18.20
2023-01-26T15:24:17.830Z,17.02
2023-01-26T15:26:52.853Z,16.85
2023-01-26T15:29:31.759Z,15.88
2023-01-26T15:32:05.780Z,19.35
2023-01-26T15:34:42.106Z,17.35
2023-01-26T15:37:29.929Z,21.48
2023-01-26T15:40:04.406Z,16.75
2023-01-26T15:42:39.405Z,16.77
2023-01-26T15:45:25.841Z,14.93
2023-01-26T15:48:01.580Z,15.63
2023-01-26T15:50:35.412Z,19.40
2023-01-26T15:53:14.470Z,21.70
2023-01-26T15:55:52.509Z,19.13
2023-01-26T15:58:28.732Z,24.38
2023-01-26T16:01:02.834Z,22.00
2023-01-26T16:03:36.348Z,26.83
2023-01-26T16:06:20.165Z,21.38
2023-01-26T16:08:54.358Z,23.55
2023-01-26T16:11:32.377Z,25.15
2023-01-26T16:14:07.939Z,25.70
2023-01-26T16:16:42.095Z,25.25
2023-01-26T16:19:33.716Z,28.77
2023-01-26T16:22:11.451Z,30.50
2023-01-26T16:24:45.414Z,28.50
2023-01-26T16:27:21.015Z,33.25
2023-01-26T16:29:55.838Z,34.70
2023-01-26T16:32:30.584Z,35.38
2023-01-26T16:35:11.883Z,29.00
2023-01-26T16:37:45.922Z,34.80
2023-01-26T16:40:20.251Z,40.60
2023-01-26T16:42:54.735Z,37.95
2023-01-26T16:45:36.974Z,31.63
2023-01-26T16:48:14.719Z,35.65
2023-01-26T16:50:52.460Z,40.17
2023-01-26T16:53:28.923Z,37.38
2023-01-26T16:56:03.288Z,37.63
2023-01-26T16:58:37.152Z,34.80
2023-01-26T17:01:18.783Z,34.10
2023-01-26T17:03:52.826Z,41.28
2023-01-26T17:06:27.230Z,42.25
2023-01-26T17:09:01.470Z,37.30
2023-01-26T17:11:35.390Z,34.05
2023-01-26T17:14:09.997Z,34.92
2023-01-26T17:16:44.966Z,35.70
2023-01-26T17:19:18.840Z,32.03
2023-01-26T17:21:52.381Z,34.40
2023-01-26T17:24:26.308Z,35.65
2023-01-26T17:27:00.344Z,31.85
2023-01-26T17:29:34.372Z,34.88
2023-01-26T17:32:09.594Z,32.53
2023-01-26T17:34:43.363Z,39.15
2023-01-26T17:37:16.978Z,43.47
2023-01-26T17:39:51.296Z,45.80
2023-01-26T17:42:25.669Z,46.00
2023-01-26T17:44:59.583Z,30.55
2023-01-26T17:47:35.245Z,40.45
2023-01-26T17:50:10.259Z,31.02
2023-01-26T17:52:43.789Z,34.95
2023-01-26T17:55:17.729Z,32.92
2023-01-26T17:57:51.388Z,30.80
2023-01-26T18:00:25.098Z,33.03
2023-01-26T18:03:00.146Z,26.92
2023-01-26T18:05:34.197Z,38.17
2023-01-26T18:08:08.022Z,32.10
2023-01-26T18:10:41.844Z,31.30
2023-01-26T18:13:16.010Z,37.58
2023-01-26T18:15:49.797Z,25.20
2023-01-26T18:18:25.278Z,31.08
2023-01-26T18:20:59.324Z,32.47
2023-01-26T18:23:33.141Z,29.42
2023-01-26T18:26:07.833Z,31.58
2023-01-26T18:28:42.029Z,27.77
2023-01-26T18:31:17.438Z,36.05
2023-01-26T18:33:53.308Z,33.78
2023-01-26T18:36:28.153Z,25.75
2023-01-26T18:39:06.543Z,30.42
2023-01-26T18:41:43.127Z,36.00
2023-01-26T18:44:18.249Z,40.22
2023-01-26T18:46:52.259Z,30.17
2023-01-26T18:49:27.341Z,30.77
2023-01-26T18:52:01.197Z,29.02
2023-01-26T18:54:35.153Z,26.20
2023-01-26T18:57:08.982Z,33.60
2023-01-26T18:59:42.594Z,30.73
2023-01-26T19:02:16.415Z,24.63
2023-01-26T19:04:53.539Z,31.00
2023-01-26T19:07:27.697Z,23.83
2023-01-26T19:10:01.927Z,28.55
2023-01-26T19:12:35.937Z,24.35
2023-01-26T19:15:11.238Z,26.83
2023-01-26T19:17:45.191Z,24.88
2023-01-26T19:20:20.540Z,30.23
2023-01-26T19:22:55.394Z,24.42
2023-01-26T19:25:29.160Z,30.77
2023-01-26T19:28:03.076Z,22.52
2023-01-26T19:30:36.728Z,28.10
2023-01-26T19:33:28.070Z,32.08
2023-01-26T19:36:05.067Z,29.63
2023-01-26T19:38:39.836Z,25.38
2023-01-26T19:41:13.740Z,30.95
2023-01-26T19:43:48.171Z,31.23
2023-01-26T19:46:22.174Z,28.17
2023-01-26T19:48:56.288Z,23.73
2023-01-26T19:51:32.989Z,28.08
2023-01-26T19:54:06.850Z,28.75
2023-01-26T19:56:40.659Z,28.35
2023-01-26T19:59:14.686Z,21.50
2023-01-26T20:01:50.671Z,23.65
2023-01-26T20:04:24.549Z,28.20
2023-01-26T20:07:01.930Z,23.42
2023-01-26T20:09:36.362Z,25.35
2023-01-26T20:12:13.069Z,24.33
2023-01-26T20:14:47.135Z,23.25
2023-01-26T20:17:20.862Z,23.92
2023-01-26T20:19:54.872Z,23.63
2023-01-26T20:22:33.541Z,16.08
2023-01-26T20:25:11.167Z,16.95
2023-01-26T20:27:45.276Z,18.52
2023-01-26T20:30:20.053Z,21.15
2023-01-26T20:32:55.088Z,19.73
2023-01-26T20:35:29.752Z,19.25
2023-01-26T20:38:04.818Z,19.48
2023-01-26T20:40:39.774Z,24.55
2023-01-26T20:43:13.571Z,22.23
2023-01-26T20:45:47.966Z,16.15
2023-01-26T20:48:21.887Z,18.58
2023-01-26T20:50:55.598Z,20.70
2023-01-26T20:53:31.986Z,24.67
2023-01-26T20:56:09.186Z,21.00
2023-01-26T20:58:43.953Z,26.55
2023-01-26T21:01:18.769Z,22.33
2023-01-26T21:03:53.319Z,17.48
2023-01-26T21:06:27.066Z,16.20
2023-01-26T21:09:03.802Z,19.40
2023-01-26T21:11:38.749Z,18.50
2023-01-26T21:14:13.556Z,15.73
2023-01-26T21:16:47.571Z,17.65
2023-01-26T21:19:21.764Z,14.32
2023-01-26T21:21:55.532Z,20.52
2023-01-26T21:24:30.669Z,16.98
2023-01-26T21:27:06.696Z,15.45
2023-01-26T21:29:40.637Z,16.27
2023-01-26T21:32:15.674Z,17.52
2023-01-26T21:34:49.449Z,13.25
2023-01-26T21:37:23.192Z,12.65
2023-01-26T21:39:58.148Z,12.00
2023-01-26T21:42:31.858Z,11.13
2023-01-26T21:45:26.064Z,13.73
2023-01-26T21:48:28.732Z,13.90
2023-01-26T21:51:20.190Z,9.30
2023-01-26T21:53:54.117Z,11.15
2023-01-26T21:56:29.363Z,10.18
2023-01-26T21:59:03.247Z,10.30
2023-01-26T22:01:38.903Z,12.88
2023-01-26T22:04:15.305Z,16.88
2023-01-26T22:06:49.027Z,8.05
2023-01-26T22:09:23.920Z,11.25
2023-01-26T22:11:58.923Z,8.95
2023-01-26T22:14:32.669Z,11.43
2023-01-26T22:17:06.297Z,12.68
2023-01-26T22:19:40.155Z,9.43
2023-01-26T22:22:13.763Z,11.43
2023-01-26T22:24:47.524Z,11.23
2023-01-26T22:27:22.516Z,7.65
2023-01-26T22:29:56.241Z,7.82
2023-01-26T22:32:29.820Z,5.57
2023-01-26T22:35:04.026Z,7.53
2023-01-26T22:37:37.862Z,9.88
2023-01-26T22:40:13.836Z,8.38
2023-01-26T22:42:49.120Z,7.65
2023-01-26T22:45:23.041Z,6.28
2023-01-26T22:47:56.531Z,7.93
2023-01-26T22:50:30.326Z,4.57
2023-01-26T22:53:03.867Z,5.55
2023-01-26T22:55:40.759Z,5.57
2023-01-26T22:58:15.809Z,5.45
2023-01-26T23:00:49.803Z,11.38
2023-01-26T23:03:23.489Z,7.63
2023-01-26T23:06:00.295Z,5.75
2023-01-26T23:08:34.588Z,4.45
2023-01-26T23:11:11.540Z,6.68
2023-01-26T23:13:48.679Z,4.15
2023-01-26T23:16:23.558Z,5.07
2023-01-26T23:18:59.098Z,3.70
2023-01-26T23:21:33.226Z,3.67
2023-01-26T23:24:07.551Z,3.05
2023-01-26T23:26:41.661Z,3.13
2023-01-26T23:29:16.569Z,4.40
2023-01-26T23:31:50.355Z,5.10
2023-01-26T23:34:24.069Z,3.42
2023-01-26T23:36:57.797Z,6.57
2023-01-26T23:39:31.502Z,2.13
2023-01-26T23:42:05.360Z,3.28
2023-01-26T23:44:40.380Z,2.08
2023-01-26T23:47:14.628Z,2.72
2023-01-26T23:49:48.418Z,2.20
2023-01-26T23:52:22.322Z,7.25
2023-01-26T23:54:55.835Z,3.15
2023-01-26T23:57:30.126Z,2.22
